sensor_id;sensor_type;location;lat;lon;timestamp;P1;durP1;ratioP1;P2;durP2;ratioP2
75535;SDS011;64119;52.070;20.804;2023-06-10T00:01:52;11.70;;;9.10;;
75535;SDS011;64119;52.070;20.804;2023-06-10T00:04:22;11.90;;;10.00;;
75535;SDS011;64119;52.070;20.804;2023-06-10T00:06:50;12.50;;;9.60;;
75535;SDS011;64119;52.070;20.804;2023-06-10T00:09:19;11.00;;;10.00;;
75535;SDS011;64119;52.070;20.804;2023-06-10T00:11:48;11.00;;;9.50;;
75535;SDS011;64119;52.070;20.804;2023-06-10T00:14:16;12.70;;;9.50;;
75535;SDS011;64119;52.070;20.804;2023-06-10T00:16:44;10.40;;;9.00;;
75535;SDS011;64119;52.070;20.804;2023-06-10T00:19:12;13.00;;;11.70;;
75535;SDS011;64119;52.070;20.804;2023-06-10T00:21:41;11.10;;;9.40;;
75535;SDS011;64119;52.070;20.804;2023-06-10T00:24:12;11.90;;;9.60;;
75535;SDS011;64119;52.070;20.804;2023-06-10T00:26:40;11.10;;;8.80;;
75535;SDS011;64119;52.070;20.804;2023-06-10T00:29:09;8.80;;;7.80;;
75535;SDS011;64119;52.070;20.804;2023-06-10T00:31:37;10.50;;;9.50;;
75535;SDS011;64119;52.070;20.804;2023-06-10T00:34:06;11.70;;;9.70;;
75535;SDS011;64119;52.070;20.804;2023-06-10T00:36:34;13.30;;;10.00;;
75535;SDS011;64119;52.070;20.804;2023-06-10T00:39:03;12.10;;;9.60;;
75535;SDS011;64119;52.070;20.804;2023-06-10T00:41:32;11.00;;;9.70;;
75535;SDS011;64119;52.070;20.804;2023-06-10T00:44:01;12.20;;;9.20;;
75535;SDS011;64119;52.070;20.804;2023-06-10T00:46:29;11.40;;;10.20;;
75535;SDS011;64119;52.070;20.804;2023-06-10T00:48:59;11.50;;;9.40;;
75535;SDS011;64119;52.070;20.804;2023-06-10T00:51:28;9.80;;;8.70;;
75535;SDS011;64119;52.070;20.804;2023-06-10T00:53:56;10.50;;;9.40;;
75535;SDS011;64119;52.070;20.804;2023-06-10T00:56:23;13.00;;;9.40;;
75535;SDS011;64119;52.070;20.804;2023-06-10T00:58:52;12.20;;;10.60;;
75535;SDS011;64119;52.070;20.804;2023-06-10T01:01:20;13.10;;;11.70;;
75535;SDS011;64119;52.070;20.804;2023-06-10T01:03:48;11.80;;;10.40;;
75535;SDS011;64119;52.070;20.804;2023-06-10T01:06:24;13.50;;;9.50;;
75535;SDS011;64119;52.070;20.804;2023-06-10T01:11:49;11.70;;;9.90;;
75535;SDS011;64119;52.070;20.804;2023-06-10T01:14:25;13.60;;;10.80;;
75535;SDS011;64119;52.070;20.804;2023-06-10T01:16:54;12.60;;;11.20;;
75535;SDS011;64119;52.070;20.804;2023-06-10T01:19:22;11.50;;;9.50;;
75535;SDS011;64119;52.070;20.804;2023-06-10T01:21:51;11.10;;;9.40;;
75535;SDS011;64119;52.070;20.804;2023-06-10T01:24:22;10.30;;;9.10;;
75535;SDS011;64119;52.070;20.804;2023-06-10T01:26:50;9.50;;;8.50;;
75535;SDS011;64119;52.070;20.804;2023-06-10T01:29:33;11.00;;;8.30;;
75535;SDS011;64119;52.070;20.804;2023-06-10T01:34:56;10.80;;;7.80;;
75535;SDS011;64119;52.070;20.804;2023-06-10T01:37:25;8.70;;;7.40;;
75535;SDS011;64119;52.070;20.804;2023-06-10T01:39:55;12.80;;;7.30;;
75535;SDS011;64119;52.070;20.804;2023-06-10T01:42:26;7.20;;;6.50;;
75535;SDS011;64119;52.070;20.804;2023-06-10T01:44:57;7.80;;;7.00;;
75535;SDS011;64119;52.070;20.804;2023-06-10T01:47:25;10.30;;;6.10;;
75535;SDS011;64119;52.070;20.804;2023-06-10T01:49:53;8.50;;;6.80;;
75535;SDS011;64119;52.070;20.804;2023-06-10T01:52:21;7.90;;;6.30;;
75535;SDS011;64119;52.070;20.804;2023-06-10T01:54:49;7.90;;;5.80;;
75535;SDS011;64119;52.070;20.804;2023-06-10T01:57:18;8.70;;;5.70;;
75535;SDS011;64119;52.070;20.804;2023-06-10T01:59:46;8.20;;;5.90;;
75535;SDS011;64119;52.070;20.804;2023-06-10T02:02:14;7.00;;;5.60;;
75535;SDS011;64119;52.070;20.804;2023-06-10T02:04:42;7.40;;;6.10;;
75535;SDS011;64119;52.070;20.804;2023-06-10T02:07:10;8.40;;;5.30;;
75535;SDS011;64119;52.070;20.804;2023-06-10T02:12:07;6.80;;;4.40;;
75535;SDS011;64119;52.070;20.804;2023-06-10T02:14:36;5.80;;;4.80;;
75535;SDS011;64119;52.070;20.804;2023-06-10T02:17:03;8.90;;;5.00;;
75535;SDS011;64119;52.070;20.804;2023-06-10T02:19:32;8.30;;;5.00;;
75535;SDS011;64119;52.070;20.804;2023-06-10T02:21:59;8.00;;;5.00;;
75535;SDS011;64119;52.070;20.804;2023-06-10T02:24:28;7.90;;;4.60;;
75535;SDS011;64119;52.070;20.804;2023-06-10T02:26:56;7.90;;;4.30;;
75535;SDS011;64119;52.070;20.804;2023-06-10T02:29:24;6.00;;;4.70;;
75535;SDS011;64119;52.070;20.804;2023-06-10T02:31:52;7.00;;;4.10;;
75535;SDS011;64119;52.070;20.804;2023-06-10T02:34:20;6.20;;;4.60;;
75535;SDS011;64119;52.070;20.804;2023-06-10T02:36:49;7.90;;;4.40;;
75535;SDS011;64119;52.070;20.804;2023-06-10T02:39:20;6.50;;;4.00;;
75535;SDS011;64119;52.070;20.804;2023-06-10T02:41:49;6.20;;;4.10;;
75535;SDS011;64119;52.070;20.804;2023-06-10T02:44:19;4.40;;;3.80;;
75535;SDS011;64119;52.070;20.804;2023-06-10T02:46:48;5.30;;;3.80;;
75535;SDS011;64119;52.070;20.804;2023-06-10T02:49:16;6.80;;;4.50;;
75535;SDS011;64119;52.070;20.804;2023-06-10T02:51:45;5.20;;;4.00;;
75535;SDS011;64119;52.070;20.804;2023-06-10T02:54:13;11.10;;;3.70;;
75535;SDS011;64119;52.070;20.804;2023-06-10T02:56:41;6.90;;;3.90;;
75535;SDS011;64119;52.070;20.804;2023-06-10T02:59:14;5.30;;;3.60;;
75535;SDS011;64119;52.070;20.804;2023-06-10T03:01:42;5.60;;;3.40;;
75535;SDS011;64119;52.070;20.804;2023-06-10T03:04:10;7.10;;;3.80;;
75535;SDS011;64119;52.070;20.804;2023-06-10T03:06:42;5.10;;;3.60;;
75535;SDS011;64119;52.070;20.804;2023-06-10T03:09:15;4.60;;;3.60;;
75535;SDS011;64119;52.070;20.804;2023-06-10T03:11:45;4.90;;;3.00;;
75535;SDS011;64119;52.070;20.804;2023-06-10T03:14:13;5.70;;;3.50;;
75535;SDS011;64119;52.070;20.804;2023-06-10T03:16:41;5.80;;;3.40;;
75535;SDS011;64119;52.070;20.804;2023-06-10T03:19:10;5.90;;;3.50;;
75535;SDS011;64119;52.070;20.804;2023-06-10T03:21:43;7.50;;;3.70;;
75535;SDS011;64119;52.070;20.804;2023-06-10T03:24:12;7.90;;;4.00;;
75535;SDS011;64119;52.070;20.804;2023-06-10T03:26:41;6.50;;;3.50;;
75535;SDS011;64119;52.070;20.804;2023-06-10T03:29:10;4.90;;;3.50;;
75535;SDS011;64119;52.070;20.804;2023-06-10T03:31:38;4.80;;;3.10;;
75535;SDS011;64119;52.070;20.804;2023-06-10T03:34:06;5.70;;;3.10;;
75535;SDS011;64119;52.070;20.804;2023-06-10T03:36:34;6.20;;;3.40;;
75535;SDS011;64119;52.070;20.804;2023-06-10T03:39:05;6.70;;;3.60;;
75535;SDS011;64119;52.070;20.804;2023-06-10T03:41:34;6.30;;;3.10;;
75535;SDS011;64119;52.070;20.804;2023-06-10T03:44:02;6.00;;;3.30;;
75535;SDS011;64119;52.070;20.804;2023-06-10T03:48:59;5.60;;;3.20;;
75535;SDS011;64119;52.070;20.804;2023-06-10T03:51:28;5.50;;;3.10;;
75535;SDS011;64119;52.070;20.804;2023-06-10T03:53:57;6.30;;;3.50;;
75535;SDS011;64119;52.070;20.804;2023-06-10T03:56:25;8.70;;;4.00;;
75535;SDS011;64119;52.070;20.804;2023-06-10T03:58:53;7.20;;;3.40;;
75535;SDS011;64119;52.070;20.804;2023-06-10T04:03:51;7.10;;;3.20;;
75535;SDS011;64119;52.070;20.804;2023-06-10T04:06:21;5.50;;;3.00;;
75535;SDS011;64119;52.070;20.804;2023-06-10T04:08:50;5.40;;;3.80;;
75535;SDS011;64119;52.070;20.804;2023-06-10T04:11:17;7.80;;;3.50;;
75535;SDS011;64119;52.070;20.804;2023-06-10T04:13:45;5.30;;;3.50;;
75535;SDS011;64119;52.070;20.804;2023-06-10T04:16:13;4.70;;;3.20;;
75535;SDS011;64119;52.070;20.804;2023-06-10T04:18:41;7.00;;;3.60;;
75535;SDS011;64119;52.070;20.804;2023-06-10T04:21:10;7.40;;;3.10;;
75535;SDS011;64119;52.070;20.804;2023-06-10T04:23:38;6.30;;;3.60;;
75535;SDS011;64119;52.070;20.804;2023-06-10T04:26:06;4.90;;;3.30;;
75535;SDS011;64119;52.070;20.804;2023-06-10T04:28:35;7.20;;;3.40;;
75535;SDS011;64119;52.070;20.804;2023-06-10T04:31:03;6.30;;;3.40;;
75535;SDS011;64119;52.070;20.804;2023-06-10T04:33:32;8.20;;;3.30;;
75535;SDS011;64119;52.070;20.804;2023-06-10T04:36:00;5.40;;;3.10;;
75535;SDS011;64119;52.070;20.804;2023-06-10T04:38:29;6.10;;;3.80;;
75535;SDS011;64119;52.070;20.804;2023-06-10T04:40:58;6.20;;;3.10;;
75535;SDS011;64119;52.070;20.804;2023-06-10T04:43:27;7.30;;;3.40;;
75535;SDS011;64119;52.070;20.804;2023-06-10T04:45:59;6.40;;;3.40;;
75535;SDS011;64119;52.070;20.804;2023-06-10T04:48:27;6.40;;;3.80;;
75535;SDS011;64119;52.070;20.804;2023-06-10T04:50:55;6.60;;;3.10;;
75535;SDS011;64119;52.070;20.804;2023-06-10T04:53:24;5.90;;;3.50;;
75535;SDS011;64119;52.070;20.804;2023-06-10T04:55:52;4.70;;;3.40;;
75535;SDS011;64119;52.070;20.804;2023-06-10T04:58:20;6.00;;;3.20;;
75535;SDS011;64119;52.070;20.804;2023-06-10T05:00:47;5.40;;;3.80;;
75535;SDS011;64119;52.070;20.804;2023-06-10T05:03:15;6.00;;;3.40;;
75535;SDS011;64119;52.070;20.804;2023-06-10T05:05:43;5.80;;;3.90;;
75535;SDS011;64119;52.070;20.804;2023-06-10T05:08:11;5.10;;;3.40;;
75535;SDS011;64119;52.070;20.804;2023-06-10T05:10:39;4.80;;;3.30;;
75535;SDS011;64119;52.070;20.804;2023-06-10T05:13:07;6.90;;;3.70;;
75535;SDS011;64119;52.070;20.804;2023-06-10T05:15:34;6.60;;;3.40;;
75535;SDS011;64119;52.070;20.804;2023-06-10T05:18:02;5.30;;;3.20;;
75535;SDS011;64119;52.070;20.804;2023-06-10T05:20:31;6.00;;;3.80;;
75535;SDS011;64119;52.070;20.804;2023-06-10T05:22:58;6.20;;;3.70;;
75535;SDS011;64119;52.070;20.804;2023-06-10T05:25:28;5.30;;;3.00;;
75535;SDS011;64119;52.070;20.804;2023-06-10T05:27:58;6.10;;;3.20;;
75535;SDS011;64119;52.070;20.804;2023-06-10T05:30:26;5.90;;;3.70;;
75535;SDS011;64119;52.070;20.804;2023-06-10T05:32:54;5.90;;;3.40;;
75535;SDS011;64119;52.070;20.804;2023-06-10T05:35:23;6.10;;;3.60;;
75535;SDS011;64119;52.070;20.804;2023-06-10T05:37:52;11.60;;;4.00;;
75535;SDS011;64119;52.070;20.804;2023-06-10T05:40:20;5.60;;;3.90;;
75535;SDS011;64119;52.070;20.804;2023-06-10T05:42:48;6.60;;;3.60;;
75535;SDS011;64119;52.070;20.804;2023-06-10T05:45:15;7.60;;;3.90;;
75535;SDS011;64119;52.070;20.804;2023-06-10T05:47:43;5.70;;;3.80;;
75535;SDS011;64119;52.070;20.804;2023-06-10T05:50:11;5.40;;;3.50;;
75535;SDS011;64119;52.070;20.804;2023-06-10T05:52:39;5.40;;;4.00;;
75535;SDS011;64119;52.070;20.804;2023-06-10T05:55:10;4.10;;;3.40;;
75535;SDS011;64119;52.070;20.804;2023-06-10T05:57:40;4.50;;;3.40;;
75535;SDS011;64119;52.070;20.804;2023-06-10T06:00:09;5.60;;;3.60;;
75535;SDS011;64119;52.070;20.804;2023-06-10T06:02:42;6.40;;;3.80;;
75535;SDS011;64119;52.070;20.804;2023-06-10T06:05:10;7.50;;;4.00;;
75535;SDS011;64119;52.070;20.804;2023-06-10T06:07:38;6.70;;;4.00;;
75535;SDS011;64119;52.070;20.804;2023-06-10T06:10:06;6.80;;;4.00;;
75535;SDS011;64119;52.070;20.804;2023-06-10T06:12:34;5.50;;;3.70;;
75535;SDS011;64119;52.070;20.804;2023-06-10T06:15:03;7.00;;;3.60;;
75535;SDS011;64119;52.070;20.804;2023-06-10T06:17:31;5.40;;;3.20;;
75535;SDS011;64119;52.070;20.804;2023-06-10T06:19:59;6.70;;;4.10;;
75535;SDS011;64119;52.070;20.804;2023-06-10T06:22:26;5.40;;;3.40;;
75535;SDS011;64119;52.070;20.804;2023-06-10T06:24:54;7.70;;;4.60;;
75535;SDS011;64119;52.070;20.804;2023-06-10T06:27:22;6.40;;;4.10;;
75535;SDS011;64119;52.070;20.804;2023-06-10T06:29:50;7.70;;;4.10;;
75535;SDS011;64119;52.070;20.804;2023-06-10T06:32:19;8.20;;;4.00;;
75535;SDS011;64119;52.070;20.804;2023-06-10T06:34:47;5.60;;;3.80;;
75535;SDS011;64119;52.070;20.804;2023-06-10T06:37:16;6.40;;;3.80;;
75535;SDS011;64119;52.070;20.804;2023-06-10T06:39:45;7.30;;;3.80;;
75535;SDS011;64119;52.070;20.804;2023-06-10T06:42:13;5.20;;;3.70;;
75535;SDS011;64119;52.070;20.804;2023-06-10T06:44:50;7.30;;;4.20;;
75535;SDS011;64119;52.070;20.804;2023-06-10T06:47:18;4.50;;;3.50;;
75535;SDS011;64119;52.070;20.804;2023-06-10T06:49:47;7.40;;;3.90;;
75535;SDS011;64119;52.070;20.804;2023-06-10T06:52:15;6.10;;;4.00;;
75535;SDS011;64119;52.070;20.804;2023-06-10T06:54:43;5.10;;;3.90;;
75535;SDS011;64119;52.070;20.804;2023-06-10T06:57:11;6.30;;;3.80;;
75535;SDS011;64119;52.070;20.804;2023-06-10T06:59:39;7.10;;;3.70;;
75535;SDS011;64119;52.070;20.804;2023-06-10T07:02:07;7.20;;;3.80;;
75535;SDS011;64119;52.070;20.804;2023-06-10T07:04:35;5.20;;;3.90;;
75535;SDS011;64119;52.070;20.804;2023-06-10T07:07:04;6.90;;;3.80;;
75535;SDS011;64119;52.070;20.804;2023-06-10T07:09:34;8.10;;;3.50;;
75535;SDS011;64119;52.070;20.804;2023-06-10T07:12:02;4.80;;;3.50;;
75535;SDS011;64119;52.070;20.804;2023-06-10T07:14:30;7.00;;;3.80;;
75535;SDS011;64119;52.070;20.804;2023-06-10T07:16:58;5.40;;;4.00;;
75535;SDS011;64119;52.070;20.804;2023-06-10T07:19:26;7.70;;;4.10;;
75535;SDS011;64119;52.070;20.804;2023-06-10T07:21:54;6.60;;;3.80;;
75535;SDS011;64119;52.070;20.804;2023-06-10T07:24:22;6.30;;;3.90;;
75535;SDS011;64119;52.070;20.804;2023-06-10T07:26:50;6.50;;;4.00;;
75535;SDS011;64119;52.070;20.804;2023-06-10T07:29:18;5.30;;;3.50;;
75535;SDS011;64119;52.070;20.804;2023-06-10T07:31:46;7.10;;;4.10;;
75535;SDS011;64119;52.070;20.804;2023-06-10T07:34:14;7.90;;;3.80;;
75535;SDS011;64119;52.070;20.804;2023-06-10T07:36:41;9.60;;;3.80;;
75535;SDS011;64119;52.070;20.804;2023-06-10T07:39:09;5.30;;;3.70;;
75535;SDS011;64119;52.070;20.804;2023-06-10T07:41:37;4.60;;;3.30;;
75535;SDS011;64119;52.070;20.804;2023-06-10T07:44:05;9.50;;;4.20;;
75535;SDS011;64119;52.070;20.804;2023-06-10T07:46:33;9.60;;;3.90;;
75535;SDS011;64119;52.070;20.804;2023-06-10T07:49:01;16.00;;;4.00;;
75535;SDS011;64119;52.070;20.804;2023-06-10T07:51:29;5.80;;;3.80;;
75535;SDS011;64119;52.070;20.804;2023-06-10T07:53:57;6.00;;;3.90;;
75535;SDS011;64119;52.070;20.804;2023-06-10T07:56:25;7.30;;;3.70;;
75535;SDS011;64119;52.070;20.804;2023-06-10T07:58:54;8.80;;;3.90;;
75535;SDS011;64119;52.070;20.804;2023-06-10T08:01:22;5.30;;;3.30;;
75535;SDS011;64119;52.070;20.804;2023-06-10T08:03:50;7.60;;;4.30;;
75535;SDS011;64119;52.070;20.804;2023-06-10T08:06:18;8.70;;;4.00;;
75535;SDS011;64119;52.070;20.804;2023-06-10T08:08:46;6.00;;;3.50;;
75535;SDS011;64119;52.070;20.804;2023-06-10T08:11:14;3.70;;;2.90;;
75535;SDS011;64119;52.070;20.804;2023-06-10T08:13:42;5.50;;;3.50;;
75535;SDS011;64119;52.070;20.804;2023-06-10T08:16:10;7.10;;;4.00;;
75535;SDS011;64119;52.070;20.804;2023-06-10T08:18:38;8.60;;;3.90;;
75535;SDS011;64119;52.070;20.804;2023-06-10T08:21:05;5.00;;;2.90;;
75535;SDS011;64119;52.070;20.804;2023-06-10T08:23:33;5.50;;;3.40;;
75535;SDS011;64119;52.070;20.804;2023-06-10T08:26:01;4.60;;;3.10;;
75535;SDS011;64119;52.070;20.804;2023-06-10T08:28:29;5.90;;;3.80;;
75535;SDS011;64119;52.070;20.804;2023-06-10T08:30:57;6.00;;;2.90;;
75535;SDS011;64119;52.070;20.804;2023-06-10T08:33:25;6.80;;;3.50;;
75535;SDS011;64119;52.070;20.804;2023-06-10T08:35:53;6.80;;;3.50;;
75535;SDS011;64119;52.070;20.804;2023-06-10T08:38:21;4.30;;;3.10;;
75535;SDS011;64119;52.070;20.804;2023-06-10T08:40:49;5.20;;;3.40;;
75535;SDS011;64119;52.070;20.804;2023-06-10T08:43:24;5.00;;;3.10;;
75535;SDS011;64119;52.070;20.804;2023-06-10T08:45:55;6.90;;;3.50;;
75535;SDS011;64119;52.070;20.804;2023-06-10T08:48:31;6.40;;;3.80;;
75535;SDS011;64119;52.070;20.804;2023-06-10T08:51:03;4.70;;;3.40;;
75535;SDS011;64119;52.070;20.804;2023-06-10T08:53:33;5.50;;;3.70;;
75535;SDS011;64119;52.070;20.804;2023-06-10T08:56:05;7.30;;;3.30;;
75535;SDS011;64119;52.070;20.804;2023-06-10T09:03:37;7.30;;;3.50;;
75535;SDS011;64119;52.070;20.804;2023-06-10T09:06:05;4.30;;;3.10;;
75535;SDS011;64119;52.070;20.804;2023-06-10T09:08:33;4.40;;;2.90;;
75535;SDS011;64119;52.070;20.804;2023-06-10T09:13:30;9.40;;;3.60;;
75535;SDS011;64119;52.070;20.804;2023-06-10T09:15:58;4.60;;;3.60;;
75535;SDS011;64119;52.070;20.804;2023-06-10T09:18:29;5.70;;;3.50;;
75535;SDS011;64119;52.070;20.804;2023-06-10T09:20:57;5.80;;;3.20;;
75535;SDS011;64119;52.070;20.804;2023-06-10T09:23:27;5.00;;;3.70;;
75535;SDS011;64119;52.070;20.804;2023-06-10T09:25:55;6.00;;;3.40;;
75535;SDS011;64119;52.070;20.804;2023-06-10T09:28:25;4.50;;;3.10;;
75535;SDS011;64119;52.070;20.804;2023-06-10T09:31:06;7.10;;;3.90;;
75535;SDS011;64119;52.070;20.804;2023-06-10T09:33:38;2.90;;;2.10;;
75535;SDS011;64119;52.070;20.804;2023-06-10T09:36:07;3.90;;;3.00;;
75535;SDS011;64119;52.070;20.804;2023-06-10T09:38:35;5.60;;;3.60;;
75535;SDS011;64119;52.070;20.804;2023-06-10T09:41:03;6.20;;;3.50;;
75535;SDS011;64119;52.070;20.804;2023-06-10T09:43:41;7.70;;;3.20;;
75535;SDS011;64119;52.070;20.804;2023-06-10T09:46:17;6.60;;;3.60;;
75535;SDS011;64119;52.070;20.804;2023-06-10T09:48:47;4.90;;;3.50;;
75535;SDS011;64119;52.070;20.804;2023-06-10T09:53:53;4.00;;;3.00;;
75535;SDS011;64119;52.070;20.804;2023-06-10T09:58:52;4.60;;;3.50;;
75535;SDS011;64119;52.070;20.804;2023-06-10T10:01:20;7.40;;;3.40;;
75535;SDS011;64119;52.070;20.804;2023-06-10T10:03:50;5.10;;;2.70;;
75535;SDS011;64119;52.070;20.804;2023-06-10T10:06:19;5.60;;;3.50;;
75535;SDS011;64119;52.070;20.804;2023-06-10T10:08:49;5.30;;;3.40;;
75535;SDS011;64119;52.070;20.804;2023-06-10T10:11:18;4.50;;;3.70;;
75535;SDS011;64119;52.070;20.804;2023-06-10T10:13:50;4.50;;;3.70;;
75535;SDS011;64119;52.070;20.804;2023-06-10T10:16:53;6.90;;;3.40;;
75535;SDS011;64119;52.070;20.804;2023-06-10T10:19:18;6.30;;;4.30;;
75535;SDS011;64119;52.070;20.804;2023-06-10T10:21:52;6.50;;;3.60;;
75535;SDS011;64119;52.070;20.804;2023-06-10T10:24:22;6.90;;;3.50;;
75535;SDS011;64119;52.070;20.804;2023-06-10T10:26:54;5.80;;;3.20;;
75535;SDS011;64119;52.070;20.804;2023-06-10T10:29:29;4.80;;;3.60;;
75535;SDS011;64119;52.070;20.804;2023-06-10T10:32:00;6.40;;;3.20;;
75535;SDS011;64119;52.070;20.804;2023-06-10T10:34:34;5.10;;;2.70;;
75535;SDS011;64119;52.070;20.804;2023-06-10T10:37:09;6.70;;;3.10;;
75535;SDS011;64119;52.070;20.804;2023-06-10T10:39:37;5.20;;;3.00;;
75535;SDS011;64119;52.070;20.804;2023-06-10T10:42:05;5.60;;;3.10;;
75535;SDS011;64119;52.070;20.804;2023-06-10T10:44:38;4.00;;;3.30;;
75535;SDS011;64119;52.070;20.804;2023-06-10T10:47:09;4.00;;;3.40;;
75535;SDS011;64119;52.070;20.804;2023-06-10T10:49:37;4.70;;;3.30;;
75535;SDS011;64119;52.070;20.804;2023-06-10T10:52:10;5.20;;;3.70;;
75535;SDS011;64119;52.070;20.804;2023-06-10T10:54:43;5.30;;;3.60;;
75535;SDS011;64119;52.070;20.804;2023-06-10T11:02:43;5.10;;;3.70;;
75535;SDS011;64119;52.070;20.804;2023-06-10T11:05:15;5.50;;;3.40;;
75535;SDS011;64119;52.070;20.804;2023-06-10T11:07:53;5.50;;;2.90;;
75535;SDS011;64119;52.070;20.804;2023-06-10T11:10:33;4.40;;;2.90;;
75535;SDS011;64119;52.070;20.804;2023-06-10T11:13:14;4.60;;;2.90;;
75535;SDS011;64119;52.070;20.804;2023-06-10T11:15:43;4.00;;;2.80;;
75535;SDS011;64119;52.070;20.804;2023-06-10T11:33:55;5.80;;;2.70;;
75535;SDS011;64119;52.070;20.804;2023-06-10T11:36:24;4.60;;;3.00;;
75535;SDS011;64119;52.070;20.804;2023-06-10T11:38:57;5.90;;;3.00;;
75535;SDS011;64119;52.070;20.804;2023-06-10T11:41:27;4.50;;;2.60;;
75535;SDS011;64119;52.070;20.804;2023-06-10T11:43:57;5.10;;;3.00;;
75535;SDS011;64119;52.070;20.804;2023-06-10T11:46:31;4.30;;;3.10;;
75535;SDS011;64119;52.070;20.804;2023-06-10T11:49:00;4.40;;;3.40;;
75535;SDS011;64119;52.070;20.804;2023-06-10T11:51:31;6.00;;;2.90;;
75535;SDS011;64119;52.070;20.804;2023-06-10T11:54:01;5.70;;;2.90;;
75535;SDS011;64119;52.070;20.804;2023-06-10T11:56:30;5.30;;;3.00;;
75535;SDS011;64119;52.070;20.804;2023-06-10T11:59:00;5.70;;;3.20;;
75535;SDS011;64119;52.070;20.804;2023-06-10T12:01:33;4.70;;;2.60;;
75535;SDS011;64119;52.070;20.804;2023-06-10T12:04:09;4.40;;;3.00;;
75535;SDS011;64119;52.070;20.804;2023-06-10T12:06:41;5.40;;;3.50;;
75535;SDS011;64119;52.070;20.804;2023-06-10T12:09:26;3.90;;;2.90;;
75535;SDS011;64119;52.070;20.804;2023-06-10T12:22:40;4.80;;;2.80;;
75535;SDS011;64119;52.070;20.804;2023-06-10T12:25:10;3.80;;;3.00;;
75535;SDS011;64119;52.070;20.804;2023-06-10T12:27:40;6.20;;;3.40;;
75535;SDS011;64119;52.070;20.804;2023-06-10T12:30:21;4.30;;;3.00;;
75535;SDS011;64119;52.070;20.804;2023-06-10T12:32:51;4.20;;;3.20;;
75535;SDS011;64119;52.070;20.804;2023-06-10T12:35:20;4.30;;;3.40;;
75535;SDS011;64119;52.070;20.804;2023-06-10T12:38:02;5.50;;;3.40;;
75535;SDS011;64119;52.070;20.804;2023-06-10T12:42:59;4.10;;;3.00;;
75535;SDS011;64119;52.070;20.804;2023-06-10T12:48:07;7.70;;;3.70;;
75535;SDS011;64119;52.070;20.804;2023-06-10T12:50:38;5.50;;;3.50;;
75535;SDS011;64119;52.070;20.804;2023-06-10T12:53:07;4.20;;;3.60;;
75535;SDS011;64119;52.070;20.804;2023-06-10T12:55:37;5.70;;;3.40;;
75535;SDS011;64119;52.070;20.804;2023-06-10T12:58:05;5.50;;;3.20;;
75535;SDS011;64119;52.070;20.804;2023-06-10T13:00:33;7.00;;;3.60;;
75535;SDS011;64119;52.070;20.804;2023-06-10T13:03:03;7.60;;;4.20;;
75535;SDS011;64119;52.070;20.804;2023-06-10T13:05:34;7.00;;;3.70;;
75535;SDS011;64119;52.070;20.804;2023-06-10T13:08:06;4.60;;;3.30;;
75535;SDS011;64119;52.070;20.804;2023-06-10T13:10:35;4.80;;;3.40;;
75535;SDS011;64119;52.070;20.804;2023-06-10T13:13:03;5.70;;;3.60;;
75535;SDS011;64119;52.070;20.804;2023-06-10T13:15:37;5.20;;;3.20;;
75535;SDS011;64119;52.070;20.804;2023-06-10T13:18:10;6.20;;;3.70;;
75535;SDS011;64119;52.070;20.804;2023-06-10T13:20:39;5.30;;;3.60;;
75535;SDS011;64119;52.070;20.804;2023-06-10T13:23:07;5.30;;;3.80;;
75535;SDS011;64119;52.070;20.804;2023-06-10T13:25:34;4.40;;;3.50;;
75535;SDS011;64119;52.070;20.804;2023-06-10T13:28:02;5.60;;;3.60;;
75535;SDS011;64119;52.070;20.804;2023-06-10T13:30:30;6.40;;;4.00;;
75535;SDS011;64119;52.070;20.804;2023-06-10T13:32:58;5.90;;;3.50;;
75535;SDS011;64119;52.070;20.804;2023-06-10T13:35:26;4.80;;;3.40;;
75535;SDS011;64119;52.070;20.804;2023-06-10T13:37:54;6.00;;;4.00;;
75535;SDS011;64119;52.070;20.804;2023-06-10T13:40:22;5.40;;;3.90;;
75535;SDS011;64119;52.070;20.804;2023-06-10T13:42:50;5.90;;;4.00;;
75535;SDS011;64119;52.070;20.804;2023-06-10T13:45:20;7.10;;;4.40;;
75535;SDS011;64119;52.070;20.804;2023-06-10T13:47:48;5.70;;;3.90;;
75535;SDS011;64119;52.070;20.804;2023-06-10T13:50:16;6.90;;;4.00;;
75535;SDS011;64119;52.070;20.804;2023-06-10T13:52:43;6.10;;;4.40;;
75535;SDS011;64119;52.070;20.804;2023-06-10T13:55:11;6.90;;;4.50;;
75535;SDS011;64119;52.070;20.804;2023-06-10T13:57:40;5.70;;;3.80;;
75535;SDS011;64119;52.070;20.804;2023-06-10T14:00:08;6.50;;;4.60;;
75535;SDS011;64119;52.070;20.804;2023-06-10T14:02:37;7.50;;;4.60;;
75535;SDS011;64119;52.070;20.804;2023-06-10T14:05:06;5.90;;;4.70;;
75535;SDS011;64119;52.070;20.804;2023-06-10T14:07:36;6.90;;;4.80;;
75535;SDS011;64119;52.070;20.804;2023-06-10T14:10:05;6.00;;;4.20;;
75535;SDS011;64119;52.070;20.804;2023-06-10T14:12:33;5.50;;;4.20;;
75535;SDS011;64119;52.070;20.804;2023-06-10T14:15:01;6.30;;;4.30;;
75535;SDS011;64119;52.070;20.804;2023-06-10T14:17:29;5.60;;;4.20;;
75535;SDS011;64119;52.070;20.804;2023-06-10T14:19:57;7.00;;;4.40;;
75535;SDS011;64119;52.070;20.804;2023-06-10T14:22:24;6.20;;;4.40;;
75535;SDS011;64119;52.070;20.804;2023-06-10T14:24:52;5.30;;;4.30;;
75535;SDS011;64119;52.070;20.804;2023-06-10T14:27:20;5.60;;;4.20;;
75535;SDS011;64119;52.070;20.804;2023-06-10T14:29:48;5.80;;;4.30;;
75535;SDS011;64119;52.070;20.804;2023-06-10T14:32:16;4.70;;;4.00;;
75535;SDS011;64119;52.070;20.804;2023-06-10T14:34:44;6.50;;;4.40;;
75535;SDS011;64119;52.070;20.804;2023-06-10T14:37:12;7.10;;;4.60;;
75535;SDS011;64119;52.070;20.804;2023-06-10T14:39:40;7.80;;;5.00;;
75535;SDS011;64119;52.070;20.804;2023-06-10T14:42:08;6.10;;;4.70;;
75535;SDS011;64119;52.070;20.804;2023-06-10T14:44:36;5.90;;;4.20;;
75535;SDS011;64119;52.070;20.804;2023-06-10T14:47:04;5.60;;;4.40;;
75535;SDS011;64119;52.070;20.804;2023-06-10T14:49:32;5.80;;;4.60;;
75535;SDS011;64119;52.070;20.804;2023-06-10T14:52:00;4.70;;;3.90;;
75535;SDS011;64119;52.070;20.804;2023-06-10T14:54:28;5.70;;;4.00;;
75535;SDS011;64119;52.070;20.804;2023-06-10T14:56:55;5.70;;;4.60;;
75535;SDS011;64119;52.070;20.804;2023-06-10T14:59:23;7.90;;;4.70;;
75535;SDS011;64119;52.070;20.804;2023-06-10T15:01:51;8.30;;;4.60;;
75535;SDS011;64119;52.070;20.804;2023-06-10T15:04:19;6.80;;;4.40;;
75535;SDS011;64119;52.070;20.804;2023-06-10T15:06:51;5.40;;;4.30;;
75535;SDS011;64119;52.070;20.804;2023-06-10T15:09:19;5.90;;;4.40;;
75535;SDS011;64119;52.070;20.804;2023-06-10T15:11:47;4.80;;;4.20;;
75535;SDS011;64119;52.070;20.804;2023-06-10T15:14:15;4.90;;;3.80;;
75535;SDS011;64119;52.070;20.804;2023-06-10T15:16:43;7.20;;;4.60;;
75535;SDS011;64119;52.070;20.804;2023-06-10T15:19:11;4.50;;;3.10;;
75535;SDS011;64119;52.070;20.804;2023-06-10T15:21:39;6.00;;;4.10;;
75535;SDS011;64119;52.070;20.804;2023-06-10T15:24:07;4.80;;;3.90;;
75535;SDS011;64119;52.070;20.804;2023-06-10T15:26:35;6.00;;;4.60;;
75535;SDS011;64119;52.070;20.804;2023-06-10T15:29:03;6.00;;;4.50;;
75535;SDS011;64119;52.070;20.804;2023-06-10T15:34:00;5.70;;;4.10;;
75535;SDS011;64119;52.070;20.804;2023-06-10T15:36:28;6.50;;;4.70;;
75535;SDS011;64119;52.070;20.804;2023-06-10T15:39:03;5.80;;;4.50;;
75535;SDS011;64119;52.070;20.804;2023-06-10T15:41:34;7.60;;;3.80;;
75535;SDS011;64119;52.070;20.804;2023-06-10T15:44:02;8.30;;;4.00;;
75535;SDS011;64119;52.070;20.804;2023-06-10T15:46:30;7.70;;;4.50;;
75535;SDS011;64119;52.070;20.804;2023-06-10T15:48:59;4.60;;;4.00;;
75535;SDS011;64119;52.070;20.804;2023-06-10T15:51:27;5.30;;;4.60;;